createdAt,value
2023-11-30T00:00:03.559Z,-1.17
2023-11-30T00:00:35.380Z,-1.28
2023-11-30T00:01:08.239Z,-1.29
2023-11-30T00:01:39.997Z,-1.26
2023-11-30T00:02:11.779Z,-1.23
2023-11-30T00:02:43.834Z,-1.25
2023-11-30T00:03:15.575Z,-1.19
2023-11-30T00:03:47.473Z,-1.11
2023-11-30T00:04:19.296Z,-1.16
2023-11-30T00:04:50.928Z,-1.15
2023-11-30T00:05:23.751Z,-1.16
2023-11-30T00:05:55.666Z,-1.13
2023-11-30T00:06:27.460Z,-1.12
2023-11-30T00:06:59.209Z,-1.17
2023-11-30T00:07:30.957Z,-1.19
2023-11-30T00:08:02.621Z,-1.17
2023-11-30T00:08:34.288Z,-1.17
2023-11-30T00:09:06.303Z,-1.15
2023-11-30T00:09:38.392Z,-1.09
2023-11-30T00:10:10.403Z,-1.06
2023-11-30T00:10:42.205Z,-1.06
2023-11-30T00:11:13.955Z,-1.05
2023-11-30T00:11:45.721Z,-1.06
2023-11-30T00:12:17.446Z,-1.05
2023-11-30T00:12:49.126Z,-1.04
2023-11-30T00:13:20.855Z,-1.04
2023-11-30T00:13:52.547Z,-0.98
2023-11-30T00:14:24.182Z,-0.94
2023-11-30T00:14:55.862Z,-0.94
2023-11-30T00:15:27.605Z,-0.89
2023-11-30T00:15:59.302Z,-0.99
2023-11-30T00:16:31.054Z,-0.98
2023-11-30T00:17:03.472Z,-1.06
2023-11-30T00:17:35.151Z,-1.17
2023-11-30T00:18:06.937Z,-1.15
2023-11-30T00:18:38.635Z,-1.16
2023-11-30T00:19:10.289Z,-1.06
2023-11-30T00:19:42.029Z,-1.12
2023-11-30T00:20:14.054Z,-1.06
2023-11-30T00:20:45.734Z,-0.99
2023-11-30T00:21:17.471Z,-1.02
2023-11-30T00:21:49.129Z,-1.04
2023-11-30T00:22:20.833Z,-1.05
2023-11-30T00:22:52.548Z,-1.05
2023-11-30T00:23:24.282Z,-0.96
2023-11-30T00:23:55.956Z,-0.94
2023-11-30T00:24:27.648Z,-0.98
2023-11-30T00:24:59.405Z,-0.89
2023-11-30T00:25:31.236Z,-0.96
2023-11-30T00:26:03.026Z,-0.96
2023-11-30T00:26:34.777Z,-0.94
2023-11-30T00:27:06.479Z,-0.94
2023-11-30T00:27:38.198Z,-0.96
2023-11-30T00:28:09.960Z,-0.94
2023-11-30T00:28:41.824Z,-1.01
2023-11-30T00:29:13.492Z,-1.02
2023-11-30T00:29:45.279Z,-1.02
2023-11-30T00:30:17.023Z,-1.01
2023-11-30T00:30:48.718Z,-0.94
2023-11-30T00:31:20.548Z,-0.95
2023-11-30T00:31:52.295Z,-0.91
2023-11-30T00:32:24.013Z,-0.87
2023-11-30T00:32:55.748Z,-0.87
2023-11-30T00:33:27.492Z,-0.85
2023-11-30T00:33:59.186Z,-0.83
2023-11-30T00:34:30.850Z,-0.83
2023-11-30T00:35:03.394Z,-0.85
2023-11-30T00:35:35.057Z,-0.87
2023-11-30T00:36:09.869Z,-0.85
2023-11-30T00:36:41.533Z,-0.88
2023-11-30T00:37:13.183Z,-0.87
2023-11-30T00:37:44.825Z,-0.89
2023-11-30T00:38:16.584Z,-0.88
2023-11-30T00:38:48.372Z,-0.89
2023-11-30T00:39:20.119Z,-0.91
2023-11-30T00:39:51.786Z,-0.84
2023-11-30T00:40:23.510Z,-0.74
2023-11-30T00:40:55.273Z,-0.74
2023-11-30T00:41:26.993Z,-0.83
2023-11-30T00:41:58.742Z,-0.88
2023-11-30T00:42:30.831Z,-0.94
2023-11-30T00:43:02.877Z,-0.94
2023-11-30T00:43:34.581Z,-0.88
2023-11-30T00:44:06.407Z,-0.85
2023-11-30T00:44:38.061Z,-0.88
2023-11-30T00:45:10.569Z,-0.81
2023-11-30T00:45:43.340Z,-0.80
2023-11-30T00:46:17.160Z,-0.77
2023-11-30T00:46:49.080Z,-0.73
2023-11-30T00:47:21.106Z,-0.77
2023-11-30T00:47:52.851Z,-0.77
2023-11-30T00:48:24.557Z,-0.74
2023-11-30T00:48:56.285Z,-0.77
2023-11-30T00:49:27.929Z,-0.68
2023-11-30T00:49:59.566Z,-0.74
2023-11-30T00:50:31.230Z,-0.74
2023-11-30T00:51:03.418Z,-0.78
2023-11-30T00:51:35.847Z,-0.80
2023-11-30T00:52:07.512Z,-0.81
2023-11-30T00:52:39.206Z,-0.75
2023-11-30T00:53:10.902Z,-0.75
2023-11-30T00:53:42.654Z,-0.71
2023-11-30T00:54:14.292Z,-0.75
2023-11-30T00:54:45.976Z,-0.71
2023-11-30T00:55:17.627Z,-0.70
2023-11-30T00:55:49.278Z,-0.71
2023-11-30T00:56:20.952Z,-0.70
2023-11-30T00:56:52.698Z,-0.61
2023-11-30T00:57:24.450Z,-0.61
2023-11-30T00:57:56.147Z,-0.60
2023-11-30T00:58:27.822Z,-0.57
2023-11-30T00:58:59.514Z,-0.63
2023-11-30T00:59:31.294Z,-0.63
2023-11-30T01:00:05.382Z,-0.61
2023-11-30T01:00:37.069Z,-0.60
2023-11-30T01:01:08.786Z,-0.63
2023-11-30T01:01:40.610Z,-0.63
2023-11-30T01:02:12.406Z,-0.64
2023-11-30T01:02:44.081Z,-0.64
2023-11-30T01:03:15.890Z,-0.64
2023-11-30T01:03:48.533Z,-0.58
2023-11-30T01:04:20.278Z,-0.63
2023-11-30T01:04:52.053Z,-0.60
2023-11-30T01:05:23.752Z,-0.63
2023-11-30T01:05:55.429Z,-0.61
2023-11-30T01:06:27.166Z,-0.61
2023-11-30T01:06:58.892Z,-0.64
2023-11-30T01:07:30.543Z,-0.65
2023-11-30T01:08:02.169Z,-0.70
2023-11-30T01:08:33.842Z,-0.71
2023-11-30T01:09:06.132Z,-0.74
2023-11-30T01:09:40.934Z,-0.73
2023-11-30T01:10:12.644Z,-0.70
2023-11-30T01:10:45.258Z,-0.70
2023-11-30T01:11:16.906Z,-0.65
2023-11-30T01:11:48.637Z,-0.65
2023-11-30T01:12:20.465Z,-0.67
2023-11-30T01:12:52.173Z,-0.68
2023-11-30T01:13:24.064Z,-0.70
2023-11-30T01:13:55.782Z,-0.67
2023-11-30T01:14:28.230Z,-0.65
2023-11-30T01:14:59.992Z,-0.65
2023-11-30T01:15:31.736Z,-0.67
2023-11-30T01:16:03.508Z,-0.64
2023-11-30T01:16:35.237Z,-0.68
2023-11-30T01:17:07.035Z,-0.67
2023-11-30T01:17:38.859Z,-0.70
2023-11-30T01:18:10.737Z,-0.70
2023-11-30T01:18:42.479Z,-0.68
2023-11-30T01:19:14.291Z,-0.64
2023-11-30T01:19:45.949Z,-0.75
2023-11-30T01:20:18.480Z,-0.75
2023-11-30T01:20:50.581Z,-0.77
2023-11-30T01:21:22.435Z,-0.80
2023-11-30T01:21:54.194Z,-0.75
2023-11-30T01:22:25.991Z,-0.74
2023-11-30T01:22:57.622Z,-0.74
2023-11-30T01:23:29.260Z,-0.74
2023-11-30T01:24:01.046Z,-0.74
2023-11-30T01:24:32.756Z,-0.75
2023-11-30T01:25:04.873Z,-0.70
2023-11-30T01:25:36.517Z,-0.71
2023-11-30T01:26:08.293Z,-0.71
2023-11-30T01:26:40.004Z,-0.70
2023-11-30T01:27:11.815Z,-0.71
2023-11-30T01:27:43.546Z,-0.68
2023-11-30T01:28:15.352Z,-0.68
2023-11-30T01:28:47.064Z,-0.71
2023-11-30T01:29:18.845Z,-0.71
2023-11-30T01:29:51.060Z,-0.71
2023-11-30T01:30:22.824Z,-0.75
2023-11-30T01:30:54.522Z,-0.70
2023-11-30T01:31:26.414Z,-0.68
2023-11-30T01:31:58.086Z,-0.73
2023-11-30T01:32:29.782Z,-0.68
2023-11-30T01:33:01.605Z,-0.71
2023-11-30T01:33:33.339Z,-0.73
2023-11-30T01:34:04.983Z,-0.74
2023-11-30T01:34:36.630Z,-0.81
2023-11-30T01:35:08.679Z,-0.78
2023-11-30T01:35:40.335Z,-0.81
2023-11-30T01:36:12.318Z,-0.83
2023-11-30T01:36:44.762Z,-0.83
2023-11-30T01:37:16.425Z,-0.81
2023-11-30T01:37:48.062Z,-0.80
2023-11-30T01:38:19.810Z,-0.75
2023-11-30T01:38:51.650Z,-0.77
2023-11-30T01:39:23.388Z,-0.81
2023-11-30T01:39:55.082Z,-0.75
2023-11-30T01:40:26.778Z,-0.73
2023-11-30T01:40:58.431Z,-0.75
2023-11-30T01:41:30.114Z,-0.75
2023-11-30T01:42:04.835Z,-0.74
2023-11-30T01:42:38.352Z,-0.77
2023-11-30T01:43:10.071Z,-0.77
2023-11-30T01:43:42.455Z,-0.77
2023-11-30T01:44:14.189Z,-0.71
2023-11-30T01:44:45.932Z,-0.73
2023-11-30T01:45:17.665Z,-0.75
2023-11-30T01:46:00.266Z,-0.74
2023-11-30T01:46:37.793Z,-0.78
2023-11-30T01:47:09.683Z,-0.78
2023-11-30T01:47:41.571Z,-0.78
2023-11-30T01:48:14.194Z,-0.75
2023-11-30T01:48:47.810Z,-0.77
2023-11-30T01:49:19.666Z,-0.78
2023-11-30T01:49:51.548Z,-0.77
2023-11-30T01:50:23.649Z,-0.73
2023-11-30T01:50:56.226Z,-0.74
2023-11-30T01:51:28.427Z,-0.71
2023-11-30T01:52:00.883Z,-0.70
2023-11-30T01:52:32.766Z,-0.75
2023-11-30T01:53:04.447Z,-0.74
2023-11-30T01:53:37.722Z,-0.73
2023-11-30T01:54:09.791Z,-0.70
2023-11-30T01:54:41.612Z,-0.71
2023-11-30T01:55:14.034Z,-0.71
2023-11-30T01:55:46.417Z,-0.71
2023-11-30T01:56:18.292Z,-0.74
2023-11-30T01:56:50.639Z,-0.77
2023-11-30T01:57:22.817Z,-0.74
2023-11-30T01:57:54.535Z,-0.71
2023-11-30T01:58:26.232Z,-0.74
2023-11-30T01:58:58.152Z,-0.80
2023-11-30T01:59:30.670Z,-0.75
2023-11-30T02:00:02.452Z,-0.77
2023-11-30T02:00:35.614Z,-0.77
2023-11-30T02:01:08.992Z,-0.73
2023-11-30T02:01:41.307Z,-0.75
2023-11-30T02:02:14.347Z,-0.74
2023-11-30T02:02:46.389Z,-0.75
2023-11-30T02:03:18.249Z,-0.78
2023-11-30T02:03:50.040Z,-0.71
2023-11-30T02:04:22.830Z,-0.74
2023-11-30T02:04:54.539Z,-0.78
2023-11-30T02:05:26.333Z,-0.78
2023-11-30T02:05:58.032Z,-0.87
2023-11-30T02:06:29.771Z,-0.84
2023-11-30T02:07:01.501Z,-0.91
2023-11-30T02:07:33.223Z,-0.88
2023-11-30T02:08:05.076Z,-0.91
2023-11-30T02:08:36.852Z,-0.91
2023-11-30T02:09:08.550Z,-0.92
2023-11-30T02:09:40.382Z,-0.95
2023-11-30T02:10:12.068Z,-0.95
2023-11-30T02:10:44.065Z,-0.95
2023-11-30T02:11:15.939Z,-0.92
2023-11-30T02:11:47.833Z,-0.89
2023-11-30T02:12:19.525Z,-0.94
2023-11-30T02:12:51.258Z,-0.89
2023-11-30T02:13:25.845Z,-0.94
2023-11-30T02:13:57.777Z,-0.91
2023-11-30T02:14:33.356Z,-0.96
2023-11-30T02:15:05.807Z,-0.98
2023-11-30T02:15:37.636Z,-0.98
2023-11-30T02:16:09.958Z,-0.96
2023-11-30T02:16:41.683Z,-1.04
2023-11-30T02:17:13.330Z,-1.04
2023-11-30T02:17:46.331Z,-1.05
2023-11-30T02:18:18.107Z,-1.09
2023-11-30T02:18:49.887Z,-1.06
2023-11-30T02:19:21.552Z,-1.02
2023-11-30T02:19:53.320Z,-0.98
2023-11-30T02:20:25.060Z,-0.99
2023-11-30T02:20:56.778Z,-0.99
2023-11-30T02:21:28.492Z,-0.99
2023-11-30T02:22:00.241Z,-1.04
2023-11-30T02:22:31.879Z,-0.99
2023-11-30T02:23:03.604Z,-1.01
2023-11-30T02:23:35.358Z,-0.95
2023-11-30T02:24:08.355Z,-0.96
2023-11-30T02:24:40.033Z,-0.94
2023-11-30T02:25:11.841Z,-0.89
2023-11-30T02:25:43.611Z,-0.88
2023-11-30T02:26:17.130Z,-0.87
2023-11-30T02:26:48.788Z,-0.89
2023-11-30T02:27:20.496Z,-0.87
2023-11-30T02:27:52.192Z,-0.85
2023-11-30T02:28:23.901Z,-0.91
2023-11-30T02:28:55.550Z,-0.91
2023-11-30T02:29:27.323Z,-0.89
2023-11-30T02:29:59.028Z,-0.92
2023-11-30T02:30:30.774Z,-0.92
2023-11-30T02:31:02.518Z,-0.95
2023-11-30T02:31:34.543Z,-0.84
2023-11-30T02:32:06.463Z,-0.81
2023-11-30T02:32:38.176Z,-0.83
2023-11-30T02:33:09.934Z,-0.87
2023-11-30T02:33:41.708Z,-0.88
2023-11-30T02:34:13.484Z,-0.83
2023-11-30T02:34:45.120Z,-0.83
2023-11-30T02:35:16.889Z,-0.78
2023-11-30T02:35:48.610Z,-0.77
2023-11-30T02:36:20.381Z,-0.70
2023-11-30T02:36:52.092Z,-0.71
2023-11-30T02:37:23.796Z,-0.77
2023-11-30T02:37:55.825Z,-0.80
2023-11-30T02:38:27.497Z,-0.78
2023-11-30T02:38:59.194Z,-0.70
2023-11-30T02:39:31.926Z,-0.73
2023-11-30T02:40:03.960Z,-0.70
2023-11-30T02:40:35.778Z,-0.70
2023-11-30T02:41:07.724Z,-0.68
2023-11-30T02:41:39.398Z,-0.70
2023-11-30T02:42:11.193Z,-0.65
2023-11-30T02:42:42.865Z,-0.61
2023-11-30T02:43:14.568Z,-0.64
2023-11-30T02:43:46.225Z,-0.61
2023-11-30T02:44:17.876Z,-0.67
2023-11-30T02:44:49.570Z,-0.65
2023-11-30T02:45:21.257Z,-0.63
2023-11-30T02:45:53.049Z,-0.58
2023-11-30T02:46:25.133Z,-0.64
2023-11-30T02:46:56.888Z,-0.57
2023-11-30T02:47:28.587Z,-0.56
2023-11-30T02:48:00.482Z,-0.57
2023-11-30T02:48:32.239Z,-0.52
2023-11-30T02:49:03.944Z,-0.56
2023-11-30T02:49:35.603Z,-0.54
2023-11-30T02:50:08.116Z,-0.57
2023-11-30T02:50:39.801Z,-0.57
2023-11-30T02:51:12.002Z,-0.58
2023-11-30T02:51:43.693Z,-0.54
2023-11-30T02:52:15.548Z,-0.56
2023-11-30T02:52:47.413Z,-0.67
2023-11-30T02:53:19.104Z,-0.67
2023-11-30T02:53:50.801Z,-0.64
2023-11-30T02:54:22.540Z,-0.68
2023-11-30T02:54:54.184Z,-0.68
2023-11-30T02:55:25.808Z,-0.64
2023-11-30T02:56:00.251Z,-0.64
2023-11-30T02:56:31.910Z,-0.63
2023-11-30T02:57:03.844Z,-0.63
2023-11-30T02:57:36.662Z,-0.65
2023-11-30T02:58:08.313Z,-0.60
2023-11-30T02:58:40.029Z,-0.58
2023-11-30T02:59:11.716Z,-0.64
2023-11-30T02:59:43.860Z,-0.68
2023-11-30T03:00:15.930Z,-0.67
2023-11-30T03:00:48.840Z,-0.68
2023-11-30T03:01:20.535Z,-0.61
2023-11-30T03:01:52.300Z,-0.63
2023-11-30T03:02:25.729Z,-0.67
2023-11-30T03:02:58.427Z,-0.65
2023-11-30T03:03:30.254Z,-0.57
2023-11-30T03:04:02.083Z,-0.60
2023-11-30T03:04:33.796Z,-0.57
2023-11-30T03:05:05.619Z,-0.68
2023-11-30T03:05:37.409Z,-0.74
2023-11-30T03:06:12.816Z,-0.73
2023-11-30T03:06:44.578Z,-0.68
2023-11-30T03:07:16.323Z,-0.70
2023-11-30T03:07:48.046Z,-0.68
2023-11-30T03:08:19.702Z,-0.65
2023-11-30T03:08:51.448Z,-0.73
2023-11-30T03:09:23.322Z,-0.68
2023-11-30T03:09:54.999Z,-0.70
2023-11-30T03:10:26.728Z,-0.61
2023-11-30T03:10:58.410Z,-0.64
2023-11-30T03:11:30.064Z,-0.63
2023-11-30T03:12:01.751Z,-0.60
2023-11-30T03:12:33.438Z,-0.60
2023-11-30T03:13:05.133Z,-0.49
2023-11-30T03:13:36.848Z,-0.52
2023-11-30T03:14:08.601Z,-0.56
2023-11-30T03:14:45.582Z,-0.53
2023-11-30T03:15:19.674Z,-0.49
2023-11-30T03:15:51.471Z,-0.49
2023-11-30T03:16:24.847Z,-0.49
2023-11-30T03:16:58.114Z,-0.52
2023-11-30T03:17:29.921Z,-0.52
2023-11-30T03:18:01.753Z,-0.52
2023-11-30T03:18:33.560Z,-0.54
2023-11-30T03:19:14.605Z,-0.56
2023-11-30T03:19:49.115Z,-0.54
2023-11-30T03:20:20.773Z,-0.54
2023-11-30T03:20:52.536Z,-0.47
2023-11-30T03:21:24.316Z,-0.56
2023-11-30T03:21:56.036Z,-0.56
2023-11-30T03:22:27.734Z,-0.50
2023-11-30T03:22:59.355Z,-0.60
2023-11-30T03:23:31.126Z,-0.53
2023-11-30T03:24:03.032Z,-0.53
2023-11-30T03:24:34.814Z,-0.50
2023-11-30T03:25:06.906Z,-0.41
2023-11-30T03:25:41.304Z,-0.38
2023-11-30T03:26:15.873Z,-0.37
2023-11-30T03:26:47.552Z,-0.32
2023-11-30T03:27:19.327Z,-0.36
2023-11-30T03:27:51.139Z,-0.36
2023-11-30T03:28:22.766Z,-0.41
2023-11-30T03:28:54.465Z,-0.36
2023-11-30T03:29:26.136Z,-0.37
2023-11-30T03:29:57.892Z,-0.46
2023-11-30T03:30:29.729Z,-0.41
2023-11-30T03:31:01.611Z,-0.40
2023-11-30T03:31:33.391Z,-0.43
2023-11-30T03:32:05.393Z,-0.47
2023-11-30T03:32:37.229Z,-0.50
2023-11-30T03:33:09.098Z,-0.56
2023-11-30T03:33:41.813Z,-0.58
2023-11-30T03:34:13.595Z,-0.49
2023-11-30T03:34:45.358Z,-0.52
2023-11-30T03:35:16.997Z,-0.49
2023-11-30T03:35:51.862Z,-0.50
2023-11-30T03:36:23.987Z,-0.54
2023-11-30T03:36:55.770Z,-0.53
2023-11-30T03:37:27.465Z,-0.56
2023-11-30T03:37:59.127Z,-0.57
2023-11-30T03:38:30.786Z,-0.52
2023-11-30T03:39:02.508Z,-0.52
2023-11-30T03:39:34.335Z,-0.47
2023-11-30T03:40:06.482Z,-0.46
2023-11-30T03:40:38.171Z,-0.43
2023-11-30T03:41:09.974Z,-0.44
2023-11-30T03:41:41.654Z,-0.38
2023-11-30T03:42:13.392Z,-0.43
2023-11-30T03:42:45.059Z,-0.44
2023-11-30T03:43:16.730Z,-0.40
2023-11-30T03:43:49.228Z,-0.43
2023-11-30T03:44:21.111Z,-0.40
2023-11-30T03:44:52.794Z,-0.41
2023-11-30T03:45:24.556Z,-0.41
2023-11-30T03:45:56.249Z,-0.38
2023-11-30T03:46:28.392Z,-0.36
2023-11-30T03:47:00.815Z,-0.40
2023-11-30T03:47:32.571Z,-0.38
2023-11-30T03:48:04.791Z,-0.34
2023-11-30T03:48:36.550Z,-0.32
2023-11-30T03:49:08.259Z,-0.38
2023-11-30T03:49:39.929Z,-0.46
2023-11-30T03:50:11.586Z,-0.52
2023-11-30T03:50:44.601Z,-0.50
2023-11-30T03:51:16.338Z,-0.50
2023-11-30T03:51:48.083Z,-0.49
2023-11-30T03:52:19.761Z,-0.50
2023-11-30T03:52:51.486Z,-0.49
2023-11-30T03:53:23.199Z,-0.44
2023-11-30T03:53:54.924Z,-0.47
2023-11-30T03:54:26.660Z,-0.44
2023-11-30T03:54:58.305Z,-0.38
2023-11-30T03:55:29.996Z,-0.40
2023-11-30T03:56:01.674Z,-0.37
2023-11-30T03:56:33.649Z,-0.40
2023-11-30T03:57:05.601Z,-0.36
2023-11-30T03:57:37.398Z,-0.29
2023-11-30T03:58:09.152Z,-0.22
2023-11-30T03:58:40.957Z,-0.27
2023-11-30T03:59:12.753Z,-0.22
2023-11-30T03:59:44.638Z,-0.19
2023-11-30T04:00:17.760Z,-0.22
2023-11-30T04:00:51.074Z,-0.16
2023-11-30T04:01:24.081Z,-0.16
2023-11-30T04:01:55.902Z,-0.20
2023-11-30T04:02:27.680Z,-0.25
2023-11-30T04:02:59.402Z,-0.19
2023-11-30T04:03:31.131Z,-0.19
2023-11-30T04:04:02.849Z,-0.15
2023-11-30T04:04:38.728Z,-0.19
2023-11-30T04:05:14.680Z,-0.16
2023-11-30T04:05:46.557Z,-0.17
2023-11-30T04:06:24.784Z,-0.13
2023-11-30T04:06:56.486Z,-0.13
2023-11-30T04:07:30.948Z,-0.12
2023-11-30T04:08:02.779Z,-0.20
2023-11-30T04:08:34.824Z,-0.17
2023-11-30T04:09:07.961Z,-0.15
2023-11-30T04:09:39.790Z,-0.19
2023-11-30T04:10:12.096Z,-0.22
2023-11-30T04:10:43.814Z,-0.29
2023-11-30T04:11:16.945Z,-0.27
2023-11-30T04:11:48.541Z,-0.26
2023-11-30T04:12:20.217Z,-0.30
2023-11-30T04:12:51.909Z,-0.26
2023-11-30T04:13:23.581Z,-0.34
2023-11-30T04:14:06.271Z,-0.26
2023-11-30T04:14:38.148Z,-0.23
2023-11-30T04:15:10.657Z,-0.29
2023-11-30T04:15:42.391Z,-0.25
2023-11-30T04:16:18.258Z,-0.23
2023-11-30T04:16:49.975Z,-0.26
2023-11-30T04:17:22.391Z,-0.27
2023-11-30T04:17:54.701Z,-0.29
2023-11-30T04:18:26.511Z,-0.30
2023-11-30T04:18:58.355Z,-0.34
2023-11-30T04:19:30.065Z,-0.32
2023-11-30T04:20:01.886Z,-0.27
2023-11-30T04:20:33.570Z,-0.30
2023-11-30T04:21:06.766Z,-0.26
2023-11-30T04:21:38.689Z,-0.29
2023-11-30T04:22:11.212Z,-0.25
2023-11-30T04:22:42.983Z,-0.22
2023-11-30T04:23:14.999Z,-0.25
2023-11-30T04:23:46.743Z,-0.22
2023-11-30T04:24:18.509Z,-0.23
2023-11-30T04:24:50.282Z,-0.23
2023-11-30T04:25:22.008Z,-0.19
2023-11-30T04:25:53.652Z,-0.26
2023-11-30T04:26:26.919Z,-0.22
2023-11-30T04:26:58.675Z,-0.16
2023-11-30T04:27:30.518Z,-0.20
2023-11-30T04:28:02.238Z,-0.23
2023-11-30T04:28:34.240Z,-0.25
2023-11-30T04:29:06.012Z,-0.25
2023-11-30T04:29:37.656Z,-0.25
2023-11-30T04:30:09.727Z,-0.29
2023-11-30T04:30:41.676Z,-0.23
2023-11-30T04:31:13.904Z,-0.22
2023-11-30T04:31:45.648Z,-0.16
2023-11-30T04:32:17.431Z,-0.16
2023-11-30T04:32:49.129Z,-0.15
2023-11-30T04:33:20.952Z,-0.19
2023-11-30T04:33:52.761Z,-0.16
2023-11-30T04:34:24.709Z,-0.26
2023-11-30T04:34:56.395Z,-0.25
2023-11-30T04:35:28.132Z,-0.20
2023-11-30T04:35:59.847Z,-0.15
2023-11-30T04:36:31.820Z,-0.10
2023-11-30T04:37:03.705Z,-0.15
2023-11-30T04:37:35.319Z,-0.12
2023-11-30T04:38:07.412Z,-0.07
2023-11-30T04:38:39.079Z,-0.09
2023-11-30T04:39:12.894Z,-0.09
2023-11-30T04:39:44.580Z,-0.06
2023-11-30T04:40:16.350Z,-0.07
2023-11-30T04:40:48.354Z,-0.10
2023-11-30T04:41:19.987Z,-0.03
2023-11-30T04:41:52.489Z,-0.02
2023-11-30T04:42:24.222Z,-0.02
2023-11-30T04:42:55.930Z,-0.01
2023-11-30T04:43:27.698Z,0.02
2023-11-30T04:43:59.518Z,-0.01
2023-11-30T04:44:31.195Z,0.01
2023-11-30T04:45:03.272Z,0.04
2023-11-30T04:45:35.143Z,0.04
2023-11-30T04:46:06.992Z,0.04
2023-11-30T04:46:38.781Z,0.02
2023-11-30T04:47:10.549Z,0.02
2023-11-30T04:47:42.205Z,0.11
2023-11-30T04:48:14.554Z,0.09
2023-11-30T04:48:47.236Z,0.08
2023-11-30T04:49:19.009Z,0.18
2023-11-30T04:49:51.263Z,0.15
2023-11-30T04:50:23.144Z,0.12
2023-11-30T04:50:54.940Z,0.15
2023-11-30T04:51:27.069Z,0.16
2023-11-30T04:51:58.858Z,0.08
2023-11-30T04:52:30.685Z,0.08
2023-11-30T04:53:02.580Z,0.15
2023-11-30T04:53:34.802Z,0.12
2023-11-30T04:54:06.677Z,0.19
2023-11-30T04:54:39.349Z,0.14
2023-11-30T04:55:11.269Z,0.12
2023-11-30T04:55:43.041Z,0.12
2023-11-30T04:56:14.713Z,0.08
2023-11-30T04:56:46.414Z,0.14
2023-11-30T04:57:18.186Z,0.18
2023-11-30T04:57:50.025Z,0.16
2023-11-30T04:58:21.735Z,0.22
2023-11-30T04:58:53.586Z,0.25
2023-11-30T04:59:25.288Z,0.18
2023-11-30T04:59:56.986Z,0.21
2023-11-30T05:00:28.730Z,0.19
2023-11-30T05:01:00.460Z,0.16
2023-11-30T05:01:34.045Z,0.24
2023-11-30T05:02:06.448Z,0.21
2023-11-30T05:02:41.675Z,0.22
2023-11-30T05:03:13.604Z,0.19
2023-11-30T05:03:45.921Z,0.24
2023-11-30T05:04:17.941Z,0.22
2023-11-30T05:04:50.216Z,0.21
2023-11-30T05:05:23.007Z,0.14
2023-11-30T05:05:54.752Z,0.04
2023-11-30T05:06:26.552Z,0.06
2023-11-30T05:06:58.216Z,0.09
2023-11-30T05:07:29.887Z,0.12
2023-11-30T05:08:01.587Z,0.12
2023-11-30T05:08:33.437Z,0.11
2023-11-30T05:09:06.963Z,0.14
2023-11-30T05:09:38.647Z,0.15
2023-11-30T05:10:10.338Z,0.11
2023-11-30T05:10:42.086Z,0.19
2023-11-30T05:11:14.051Z,0.16
2023-11-30T05:11:45.720Z,0.21
2023-11-30T05:12:17.529Z,0.21
2023-11-30T05:12:49.165Z,0.22
2023-11-30T05:13:21.001Z,0.22
2023-11-30T05:13:52.753Z,0.21
2023-11-30T05:14:24.385Z,0.21
2023-11-30T05:14:56.256Z,0.19
2023-11-30T05:15:27.977Z,0.22
2023-11-30T05:16:00.522Z,0.14
2023-11-30T05:16:32.250Z,0.12
2023-11-30T05:17:04.170Z,0.08
2023-11-30T05:17:35.890Z,0.11
2023-11-30T05:18:07.884Z,0.15
2023-11-30T05:18:39.627Z,0.14
2023-11-30T05:19:11.449Z,0.12
2023-11-30T05:19:43.118Z,0.22
2023-11-30T05:20:14.865Z,0.25
2023-11-30T05:20:46.578Z,0.30
2023-11-30T05:21:18.260Z,0.26
2023-11-30T05:21:49.946Z,0.29
2023-11-30T05:22:21.607Z,0.32
2023-11-30T05:22:53.303Z,0.30
2023-11-30T05:23:25.680Z,0.32
2023-11-30T05:23:57.387Z,0.33
2023-11-30T05:24:29.189Z,0.35
2023-11-30T05:25:01.728Z,0.35
2023-11-30T05:25:33.550Z,0.29
2023-11-30T05:26:05.678Z,0.35
2023-11-30T05:26:37.311Z,0.32
2023-11-30T05:27:09.125Z,0.26
2023-11-30T05:27:40.805Z,0.22
2023-11-30T05:28:12.508Z,0.29
2023-11-30T05:28:44.531Z,0.29
2023-11-30T05:29:16.240Z,0.36
2023-11-30T05:29:47.948Z,0.26
2023-11-30T05:30:19.697Z,0.28
2023-11-30T05:30:51.379Z,0.25
2023-11-30T05:31:23.100Z,0.22
2023-11-30T05:31:54.827Z,0.19
2023-11-30T05:32:26.550Z,0.25
2023-11-30T05:32:58.630Z,0.21
2023-11-30T05:33:32.345Z,0.29
2023-11-30T05:34:04.934Z,0.30
2023-11-30T05:34:39.722Z,0.30
2023-11-30T05:35:12.031Z,0.21
2023-11-30T05:35:43.677Z,0.25
2023-11-30T05:36:15.491Z,0.21
2023-11-30T05:36:47.523Z,0.28
2023-11-30T05:37:19.451Z,0.26
2023-11-30T05:37:51.106Z,0.25
2023-11-30T05:38:22.802Z,0.33
2023-11-30T05:38:54.475Z,0.29
2023-11-30T05:39:26.206Z,0.35
2023-11-30T05:39:57.854Z,0.26
2023-11-30T05:40:29.623Z,0.21
2023-11-30T05:41:01.354Z,0.25
2023-11-30T05:41:33.110Z,0.28
2023-11-30T05:42:05.490Z,0.25
2023-11-30T05:42:37.179Z,0.28
2023-11-30T05:43:08.919Z,0.30
2023-11-30T05:43:40.905Z,0.33
2023-11-30T05:44:12.582Z,0.25
2023-11-30T05:44:44.236Z,0.32
2023-11-30T05:45:16.042Z,0.26
2023-11-30T05:45:47.861Z,0.26
2023-11-30T05:46:20.973Z,0.35
2023-11-30T05:46:53.652Z,0.38
2023-11-30T05:47:25.797Z,0.33
2023-11-30T05:47:57.501Z,0.29
2023-11-30T05:48:29.353Z,0.35
2023-11-30T05:49:01.297Z,0.35
2023-11-30T05:49:33.038Z,0.33
2023-11-30T05:50:05.990Z,0.30
2023-11-30T05:50:37.702Z,0.29
2023-11-30T05:51:09.692Z,0.35
2023-11-30T05:51:41.380Z,0.30
2023-11-30T05:52:13.064Z,0.33
2023-11-30T05:52:44.913Z,0.41
2023-11-30T05:53:16.639Z,0.35
2023-11-30T05:53:48.289Z,0.35
2023-11-30T05:54:20.707Z,0.32
2023-11-30T05:54:52.556Z,0.32
2023-11-30T05:55:24.339Z,0.22
2023-11-30T05:55:56.004Z,0.24
2023-11-30T05:56:27.665Z,0.32
2023-11-30T05:57:01.152Z,0.32
2023-11-30T05:57:33.252Z,0.33
2023-11-30T05:58:04.975Z,0.29
2023-11-30T05:58:37.347Z,0.33
2023-11-30T05:59:09.116Z,0.32
2023-11-30T05:59:41.169Z,0.32
2023-11-30T06:00:13.735Z,0.35
2023-11-30T06:00:45.519Z,0.36
2023-11-30T06:01:18.204Z,0.36
2023-11-30T06:01:49.934Z,0.33
2023-11-30T06:02:23.337Z,0.36
2023-11-30T06:02:55.510Z,0.36
2023-11-30T06:03:27.361Z,0.45
2023-11-30T06:03:59.339Z,0.48
2023-11-30T06:04:31.460Z,0.35
2023-11-30T06:05:03.597Z,0.39
2023-11-30T06:05:35.366Z,0.39
2023-11-30T06:06:12.671Z,0.42
2023-11-30T06:06:44.333Z,0.41
2023-11-30T06:07:16.128Z,0.39
2023-11-30T06:07:47.860Z,0.39
2023-11-30T06:08:19.506Z,0.42
2023-11-30T06:08:51.244Z,0.39
2023-11-30T06:09:22.965Z,0.38
2023-11-30T06:09:54.642Z,0.39
2023-11-30T06:10:26.508Z,0.36
2023-11-30T06:10:58.167Z,0.33
2023-11-30T06:11:29.900Z,0.38
2023-11-30T06:12:01.578Z,0.35
2023-11-30T06:12:33.303Z,0.36
2023-11-30T06:13:05.072Z,0.35
2023-11-30T06:13:36.888Z,0.33
2023-11-30T06:14:08.526Z,0.45
2023-11-30T06:14:40.169Z,0.43
2023-11-30T06:15:12.434Z,0.39
2023-11-30T06:15:44.325Z,0.39
2023-11-30T06:16:16.750Z,0.41
2023-11-30T06:16:48.503Z,0.41
2023-11-30T06:17:20.220Z,0.39
2023-11-30T06:17:52.032Z,0.36
2023-11-30T06:18:24.473Z,0.45
2023-11-30T06:18:56.179Z,0.42
2023-11-30T06:19:27.820Z,0.41
2023-11-30T06:19:59.486Z,0.50
2023-11-30T06:20:32.481Z,0.46
2023-11-30T06:21:08.977Z,0.45
2023-11-30T06:21:40.895Z,0.45
2023-11-30T06:22:12.608Z,0.45
2023-11-30T06:22:44.249Z,0.41
2023-11-30T06:23:16.587Z,0.39
2023-11-30T06:23:48.374Z,0.41
2023-11-30T06:24:20.102Z,0.45
2023-11-30T06:24:51.855Z,0.49
2023-11-30T06:25:23.649Z,0.52
2023-11-30T06:25:57.461Z,0.50
2023-11-30T06:26:29.153Z,0.50
2023-11-30T06:27:02.710Z,0.43
2023-11-30T06:27:34.756Z,0.49
2023-11-30T06:28:06.420Z,0.49
2023-11-30T06:28:38.123Z,0.52
2023-11-30T06:29:12.419Z,0.48
2023-11-30T06:29:44.152Z,0.52
2023-11-30T06:30:16.111Z,0.52
2023-11-30T06:30:48.327Z,0.48
2023-11-30T06:31:20.066Z,0.42
2023-11-30T06:31:51.809Z,0.49
2023-11-30T06:32:23.641Z,0.49
2023-11-30T06:32:55.402Z,0.50
2023-11-30T06:33:27.434Z,0.48
2023-11-30T06:33:59.199Z,0.42
2023-11-30T06:34:30.924Z,0.52
2023-11-30T06:35:03.206Z,0.52
2023-11-30T06:35:34.862Z,0.49
2023-11-30T06:36:07.004Z,0.46
2023-11-30T06:36:38.819Z,0.48
2023-11-30T06:37:10.472Z,0.52
2023-11-30T06:37:42.112Z,0.43
2023-11-30T06:38:13.823Z,0.41
2023-11-30T06:38:45.577Z,0.56
2023-11-30T06:39:17.325Z,0.88
2023-11-30T06:39:49.096Z,0.91
2023-11-30T06:40:20.716Z,0.88
2023-11-30T06:40:52.354Z,0.83
2023-11-30T06:41:24.317Z,0.77
2023-11-30T06:41:55.979Z,0.63
2023-11-30T06:42:27.672Z,0.64
2023-11-30T06:42:59.323Z,0.64
2023-11-30T06:43:30.995Z,0.72
2023-11-30T06:44:02.827Z,0.69
2023-11-30T06:44:34.533Z,0.67
2023-11-30T06:45:06.807Z,0.64
2023-11-30T06:45:38.451Z,0.70
2023-11-30T06:46:10.265Z,0.73
2023-11-30T06:46:43.720Z,0.73
2023-11-30T06:47:15.914Z,0.72
2023-11-30T06:47:47.668Z,0.70
2023-11-30T06:48:19.533Z,0.69
2023-11-30T06:48:51.967Z,0.80
2023-11-30T06:49:23.672Z,0.81
2023-11-30T06:49:55.559Z,0.87
2023-11-30T06:50:27.256Z,0.87
2023-11-30T06:50:58.967Z,0.83
2023-11-30T06:51:30.701Z,0.73
2023-11-30T06:52:05.057Z,0.73
2023-11-30T06:52:37.593Z,0.76
2023-11-30T06:53:09.377Z,0.81
2023-11-30T06:53:41.548Z,0.81
2023-11-30T06:54:13.289Z,0.74
2023-11-30T06:54:45.109Z,0.79
2023-11-30T06:55:17.227Z,0.88
2023-11-30T06:55:48.879Z,0.83
2023-11-30T06:56:20.582Z,0.84
2023-11-30T06:56:52.313Z,0.80